createdAt,value
2019-01-03T00:02:31.967Z,-0.90
2019-01-03T00:08:00.543Z,-0.90
2019-01-03T00:13:41.243Z,-0.90
2019-01-03T00:19:05.433Z,-0.90
2019-01-03T00:24:24.018Z,-1.00
2019-01-03T00:29:48.107Z,-1.00
2019-01-03T00:35:12.177Z,-1.10
2019-01-03T00:40:40.473Z,-1.10
2019-01-03T00:46:10.836Z,-1.20
2019-01-03T00:51:54.341Z,-1.30
2019-01-03T00:57:18.540Z,-1.30
2019-01-03T01:02:49.702Z,-1.30
2019-01-03T01:08:14.754Z,-1.30
2019-01-03T01:13:58.257Z,-1.30
2019-01-03T01:19:22.894Z,-1.30
2019-01-03T01:24:46.325Z,-1.20
2019-01-03T01:30:11.146Z,-1.10
2019-01-03T01:35:34.357Z,-1.10
2019-01-03T01:40:54.710Z,-0.90
2019-01-03T01:46:28.710Z,-0.90
2019-01-03T01:52:02.179Z,-0.80
2019-01-03T01:57:39.075Z,-0.80
2019-01-03T02:03:06.905Z,-0.80
2019-01-03T02:08:30.541Z,-0.90
2019-01-03T02:14:10.384Z,-0.80
2019-01-03T02:19:37.731Z,-0.90
2019-01-03T02:25:07.046Z,-1.00
2019-01-03T02:30:28.904Z,-1.00
2019-01-03T02:36:02.382Z,-1.00
2019-01-03T02:41:29.817Z,-1.00
2019-01-03T02:47:02.714Z,-1.10
2019-01-03T02:52:25.839Z,-1.20
2019-01-03T02:57:54.599Z,-1.20
2019-01-03T03:03:19.175Z,-1.20
2019-01-03T03:08:59.074Z,-1.20
2019-01-03T03:14:26.714Z,-1.10
2019-01-03T03:20:03.557Z,-1.10
2019-01-03T03:25:26.805Z,-1.10
2019-01-03T03:30:50.370Z,-1.00
2019-01-03T03:36:30.506Z,-1.00
2019-01-03T03:42:08.463Z,-1.00
2019-01-03T03:47:32.500Z,-1.10
2019-01-03T03:52:55.809Z,-1.30
2019-01-03T03:58:38.155Z,-1.40
2019-01-03T04:04:08.440Z,-1.40
2019-01-03T04:09:24.111Z,-1.50
2019-01-03T04:14:57.987Z,-1.40
2019-01-03T04:20:26.867Z,-1.30
2019-01-03T04:25:51.573Z,-1.30
2019-01-03T04:31:15.503Z,-1.20
2019-01-03T04:36:50.877Z,-1.20
2019-01-03T04:42:24.528Z,-1.20
2019-01-03T04:47:50.479Z,-1.20
2019-01-03T04:53:14.824Z,-1.20
2019-01-03T04:58:46.367Z,-1.20
2019-01-03T05:04:23.785Z,-1.20
2019-01-03T05:10:03.136Z,-1.20
2019-01-03T05:15:33.597Z,-1.30
2019-01-03T05:21:00.991Z,-1.30
2019-01-03T05:26:28.563Z,-1.30
2019-01-03T05:31:50.797Z,-1.20
2019-01-03T05:37:20.324Z,-1.30
2019-01-03T05:42:43.407Z,-1.30
2019-01-03T05:48:07.719Z,-1.30
2019-01-03T05:53:30.613Z,-1.40
2019-01-03T05:58:57.603Z,-1.50
2019-01-03T06:04:34.123Z,-1.60
2019-01-03T06:09:57.615Z,-1.70
2019-01-03T06:15:33.996Z,-1.80
2019-01-03T06:20:56.938Z,-1.90
2019-01-03T06:26:21.532Z,-1.90
2019-01-03T06:31:57.879Z,-2.00
2019-01-03T06:37:24.931Z,-2.10
2019-01-03T06:42:53.241Z,-2.00
2019-01-03T06:48:32.891Z,-2.00
2019-01-03T06:53:55.716Z,-1.90
2019-01-03T06:59:38.113Z,-2.00
2019-01-03T07:05:01.196Z,-2.00
2019-01-03T07:10:24.327Z,-2.00
2019-01-03T07:15:47.309Z,-2.00
2019-01-03T07:21:11.538Z,-2.00
2019-01-03T07:26:51.181Z,-2.00
2019-01-03T07:32:18.192Z,-1.90
2019-01-03T07:37:54.588Z,-1.90
2019-01-03T07:43:25.914Z,-1.80
2019-01-03T07:48:56.468Z,-1.80
2019-01-03T07:54:23.554Z,-1.80
2019-01-03T07:59:50.765Z,-1.80
2019-01-03T08:05:07.831Z,-1.80
2019-01-03T08:10:43.982Z,-1.70
2019-01-03T08:16:07.160Z,-1.60
2019-01-03T08:21:43.655Z,-1.60
2019-01-03T08:27:14.141Z,-1.60
2019-01-03T08:32:39.448Z,-1.50
2019-01-03T08:38:06.695Z,-1.50
2019-01-03T08:43:44.458Z,-1.50
2019-01-03T08:49:11.473Z,-1.40
2019-01-03T08:54:35.537Z,-1.30
2019-01-03T09:00:13.554Z,-1.30
2019-01-03T09:05:50.147Z,-1.20
2019-01-03T09:11:17.419Z,-1.20
2019-01-03T09:16:35.379Z,-1.10
2019-01-03T09:22:11.723Z,-1.00
2019-01-03T09:27:58.362Z,-1.10
2019-01-03T09:33:35.805Z,-1.00
2019-01-03T09:39:10.083Z,-1.00
2019-01-03T09:44:34.795Z,-0.80
2019-01-03T09:49:41.190Z,-0.90
2019-01-03T09:54:47.105Z,-0.80
2019-01-03T09:59:52.398Z,-0.60
2019-01-03T10:04:58.820Z,-0.50
2019-01-03T10:10:05.758Z,-0.30
2019-01-03T10:15:11.706Z,0.00
2019-01-03T10:20:17.374Z,0.00
2019-01-03T10:25:22.710Z,-0.20
2019-01-03T10:30:28.302Z,-0.10
2019-01-03T10:35:33.812Z,0.00
2019-01-03T10:40:39.446Z,0.50
2019-01-03T10:45:45.079Z,0.60
2019-01-03T10:50:50.580Z,1.00
2019-01-03T10:55:56.293Z,1.10
2019-01-03T11:01:01.928Z,0.90
2019-01-03T11:06:08.345Z,0.80
2019-01-03T11:11:15.253Z,0.80
2019-01-03T11:16:20.904Z,0.80
2019-01-03T11:21:26.487Z,0.80
2019-01-03T11:26:33.291Z,0.70
2019-01-03T11:31:39.961Z,0.70
2019-01-03T11:36:45.641Z,0.70
2019-01-03T11:41:50.915Z,0.80
2019-01-03T11:46:56.210Z,0.90
2019-01-03T11:52:01.535Z,0.90
2019-01-03T11:57:06.828Z,0.80
2019-01-03T12:02:12.128Z,-2.20
2019-01-03T12:07:17.903Z,0.90
2019-01-03T12:12:24.045Z,1.00
2019-01-03T12:17:29.757Z,1.10
2019-01-03T12:22:35.223Z,1.10
2019-01-03T12:27:40.611Z,1.30
2019-01-03T12:32:46.979Z,1.20
2019-01-03T12:37:53.676Z,1.20
2019-01-03T12:42:59.532Z,1.30
2019-01-03T12:48:06.024Z,1.30
2019-01-03T12:53:12.806Z,1.30
2019-01-03T12:58:20.293Z,1.20
2019-01-03T13:03:26.914Z,1.10
2019-01-03T13:08:32.785Z,1.00
2019-01-03T13:13:39.194Z,1.00
2019-01-03T13:18:44.901Z,0.90
2019-01-03T13:23:50.595Z,0.80
2019-01-03T13:28:56.282Z,0.80
2019-01-03T13:34:03.045Z,0.80
2019-01-03T13:39:09.199Z,0.80
2019-01-03T13:44:14.491Z,0.80
2019-01-03T13:49:19.779Z,0.80
2019-01-03T13:54:25.190Z,0.70
2019-01-03T13:59:30.469Z,0.70
2019-01-03T14:04:35.756Z,0.70
2019-01-03T14:09:41.063Z,0.70
2019-01-03T14:14:46.383Z,0.60
2019-01-03T14:19:51.667Z,-1.80
2019-01-03T14:24:56.974Z,0.60
2019-01-03T14:30:02.304Z,0.70
2019-01-03T14:35:07.764Z,0.60
2019-01-03T14:40:13.168Z,0.60
2019-01-03T14:45:18.499Z,0.60
2019-01-03T14:50:23.740Z,0.60
2019-01-03T14:55:29.027Z,0.50
2019-01-03T15:00:34.507Z,0.50
2019-01-03T15:05:39.848Z,0.50
2019-01-03T15:10:45.123Z,0.50
2019-01-03T15:15:50.407Z,0.40
2019-01-03T15:20:55.715Z,0.40
2019-01-03T15:26:01.045Z,0.40
2019-01-03T15:31:06.482Z,0.40
2019-01-03T15:36:11.746Z,0.40
2019-01-03T15:41:17.024Z,0.30
2019-01-03T15:46:22.363Z,0.30
2019-01-03T15:51:27.575Z,0.30
2019-01-03T15:56:32.928Z,0.40
2019-01-03T16:01:38.263Z,0.30
2019-01-03T16:06:43.695Z,0.40
2019-01-03T16:11:49.096Z,0.40
2019-01-03T16:16:54.411Z,0.40
2019-01-03T16:21:59.768Z,0.40
2019-01-03T16:27:05.240Z,0.30
2019-01-03T16:32:10.603Z,0.30
2019-01-03T16:37:15.907Z,0.30
2019-01-03T16:42:21.247Z,0.40
2019-01-03T16:47:26.612Z,-1.00
2019-01-03T16:52:31.975Z,0.30
2019-01-03T16:57:37.765Z,0.30
2019-01-03T17:02:43.257Z,0.30
2019-01-03T17:07:48.591Z,0.30
2019-01-03T17:12:54.138Z,0.30
2019-01-03T17:18:00.113Z,0.20
2019-01-03T17:23:05.732Z,0.20
2019-01-03T17:28:11.271Z,0.20
2019-01-03T17:33:16.595Z,0.20
2019-01-03T17:38:22.002Z,0.20
2019-01-03T17:43:27.487Z,0.20
2019-01-03T17:48:32.930Z,0.20
2019-01-03T17:53:38.387Z,0.20
2019-01-03T17:58:43.928Z,0.10
2019-01-03T18:03:49.622Z,0.10
2019-01-03T18:08:55.168Z,0.10
2019-01-03T18:14:00.680Z,0.10
2019-01-03T18:19:06.131Z,0.10
2019-01-03T18:24:11.877Z,0.10
2019-01-03T18:29:18.063Z,0.00
2019-01-03T18:34:23.726Z,0.10
2019-01-03T18:39:29.944Z,0.10
2019-01-03T18:44:35.214Z,0.10
2019-01-03T18:49:40.915Z,0.10
2019-01-03T18:54:46.418Z,0.10
2019-01-03T18:59:51.715Z,0.10
2019-01-03T19:04:57.124Z,0.10
2019-01-03T19:10:02.542Z,0.10
2019-01-03T19:15:08.701Z,0.10
2019-01-03T19:20:14.127Z,0.10
2019-01-03T19:25:19.991Z,0.10
2019-01-03T19:30:25.383Z,0.10
2019-01-03T19:35:30.673Z,0.10
2019-01-03T19:40:35.975Z,0.10
2019-01-03T19:45:41.254Z,0.10
2019-01-03T19:50:46.751Z,0.00
2019-01-03T19:55:52.045Z,0.10
2019-01-03T20:00:57.379Z,0.10
2019-01-03T20:06:02.730Z,0.00
2019-01-03T20:11:09.215Z,0.00
2019-01-03T20:16:14.523Z,0.00
2019-01-03T20:21:20.002Z,0.00
2019-01-03T20:26:25.595Z,0.00
2019-01-03T20:31:30.935Z,0.00
2019-01-03T20:36:36.588Z,0.00
2019-01-03T20:41:41.983Z,0.00
2019-01-03T20:46:47.439Z,0.00
2019-01-03T20:51:52.804Z,0.00
2019-01-03T20:56:58.209Z,-0.10
2019-01-03T21:02:03.894Z,-0.10
2019-01-03T21:07:09.789Z,-0.10
2019-01-03T21:12:15.143Z,-0.10
2019-01-03T21:17:20.620Z,-0.10
2019-01-03T21:22:25.992Z,-0.10
2019-01-03T21:27:31.699Z,-0.10
2019-01-03T21:32:37.167Z,-0.10
2019-01-03T21:37:42.464Z,-0.10
2019-01-03T21:42:49.088Z,-0.10
2019-01-03T21:47:55.410Z,-0.10
2019-01-03T21:53:03.225Z,-0.10
2019-01-03T21:58:08.670Z,-0.10
2019-01-03T22:03:14.224Z,-0.10
2019-01-03T22:08:20.870Z,-0.10
2019-01-03T22:13:26.427Z,-0.20
2019-01-03T22:18:31.955Z,-0.20
2019-01-03T22:23:37.559Z,-0.20
2019-01-03T22:28:43.063Z,-0.30
2019-01-03T22:33:48.844Z,-0.20
2019-01-03T22:38:54.159Z,-0.20
2019-01-03T22:43:59.484Z,-0.30
2019-01-03T22:49:05.951Z,-0.30
2019-01-03T22:54:12.079Z,-0.30
2019-01-03T22:59:18.368Z,-0.30
2019-01-03T23:04:24.975Z,-0.30
2019-01-03T23:09:31.414Z,-0.40
2019-01-03T23:14:37.512Z,-0.40
2019-01-03T23:19:44.191Z,-0.50
2019-01-03T23:24:51.362Z,-0.50
2019-01-03T23:29:58.860Z,-0.60
2019-01-03T23:35:05.473Z,-0.60
2019-01-03T23:40:12.323Z,-0.60
2019-01-03T23:45:25.293Z,-0.60
2019-01-03T23:50:36.367Z,-0.60
2019-01-03T23:55:48.976Z,-0.60
